Time,TemperatureF,DewpointF,PressureIn,WindDirection,WindDirectionDegrees,WindSpeedMPH,WindSpeedGustMPH,Humidity,HourlyPrecipIn,Conditions,Clouds,dailyrainin,SoftwareType,DateUTC
2013-01-02 00:00:00,63.9,60.3,30.01,WSW,247,0.0,0.0,88,0.00,,,0.00,Wunderground v.1.15,2013-01-02 05:00:00,
2013-01-02 00:01:00,63.9,60.3,30.01,WSW,247,0.0,0.0,88,0.00,,,0.00,Wunderground v.1.15,2013-01-02 05:01:00,
2013-01-02 00:03:00,63.9,60.3,30.01,WSW,247,0.0,0.0,88,0.00,,,0.00,Wunderground v.1.15,2013-01-02 05:03:00,
2013-01-02 00:09:00,63.9,60.3,30.01,WSW,245,0.0,0.0,88,0.00,,,0.00,Wunderground v.1.15,2013-01-02 05:09:00,
2013-01-02 00:15:00,63.7,59.8,30.00,WSW,245,0.0,0.0,87,0.00,,,0.00,Wunderground v.1.15,2013-01-02 05:15:00,
2013-01-02 00:21:00,63.5,59.9,30.00,WSW,245,0.0,0.0,88,0.00,,,0.00,Wunderground v.1.15,2013-01-02 05:21:00,
2013-01-02 00:27:00,63.5,59.9,30.00,WSW,245,0.0,0.0,88,0.00,,,0.00,Wunderground v.1.15,2013-01-02 05:27:00,
2013-01-02 00:32:00,63.4,59.8,30.00,WSW,245,0.0,0.0,88,0.00,,,0.00,Wunderground v.1.15,2013-01-02 05:32:00,
2013-01-02 00:38:00,63.2,59.6,30.00,WSW,245,0.0,0.0,88,0.00,,,0.00,Wunderground v.1.15,2013-01-02 05:38:00,
2013-01-02 00:44:00,62.9,59.3,30.00,WSW,245,0.0,0.0,88,0.00,,,0.00,Wunderground v.1.15,2013-01-02 05:44:00,
2013-01-02 00:50:00,62.7,59.1,29.99,WSW,245,0.0,0.0,88,0.00,,,0.00,Wunderground v.1.15,2013-01-02 05:50:00,
2013-01-02 00:56:00,62.6,59.0,29.99,WSW,245,0.0,0.0,88,0.00,,,0.00,Wunderground v.1.15,2013-01-02 05:56:00,
2013-01-02 01:02:00,62.3,58.7,29.99,WSW,245,0.0,0.0,88,0.00,,,0.00,Wunderground v.1.15,2013-01-02 06:02:00,
2013-01-02 01:08:00,62.1,58.8,29.99,WSW,245,0.0,0.0,89,0.00,,,0.00,Wunderground v.1.15,2013-01-02 06:08:00,
2013-01-02 01:14:00,62.0,59.0,29.99,SW,222,0.0,0.0,90,0.00,,,0.00,Wunderground v.1.15,2013-01-02 06:14:00,
2013-01-02 01:20:00,62.0,59.0,29.99,SW,222,0.0,0.0,90,0.00,,,0.00,Wunderground v.1.15,2013-01-02 06:20:00,
2013-01-02 01:26:00,61.8,58.8,29.99,SW,222,0.0,0.0,90,0.00,,,0.00,Wunderground v.1.15,2013-01-02 06:26:00,
2013-01-02 01:31:00,61.8,59.1,29.99,SW,222,0.0,0.0,91,0.00,,,0.00,Wunderground v.1.15,2013-01-02 06:31:00,
2013-01-02 01:37:00,61.8,59.1,29.99,SW,222,0.0,0.0,91,0.00,,,0.00,Wunderground v.1.15,2013-01-02 06:37:00,
2013-01-02 01:43:00,61.6,58.9,29.99,SW,222,0.0,0.0,91,0.00,,,0.00,Wunderground v.1.15,2013-01-02 06:43:00,
2013-01-02 01:49:00,61.6,58.9,29.99,SW,222,0.0,0.0,91,0.00,,,0.00,Wunderground v.1.15,2013-01-02 06:49:00,
2013-01-02 01:55:00,61.6,59.3,29.99,SW,222,0.0,0.0,92,0.00,,,0.00,Wunderground v.1.15,2013-01-02 06:55:00,
2013-01-02 02:01:00,61.5,59.2,29.99,SW,222,0.0,0.0,92,0.00,,,0.00,Wunderground v.1.15,2013-01-02 07:01:00,
2013-01-02 02:06:00,61.5,59.2,29.99,SW,222,0.0,0.0,92,0.00,,,0.00,Wunderground v.1.15,2013-01-02 07:06:00,
2013-01-02 02:11:00,61.5,59.2,29.99,SW,222,0.0,0.0,92,0.00,,,0.00,Wunderground v.1.15,2013-01-02 07:11:00,
2013-01-02 02:16:00,61.3,59.0,29.98,SW,222,0.0,0.0,92,0.00,,,0.00,Wunderground v.1.15,2013-01-02 07:16:00,
2013-01-02 02:21:00,61.3,59.0,29.98,SW,222,0.0,0.0,92,0.00,,,0.00,Wunderground v.1.15,2013-01-02 07:21:00,
2013-01-02 02:26:00,61.2,58.9,29.98,SW,222,0.0,0.0,92,0.00,,,0.00,Wunderground v.1.15,2013-01-02 07:26:00,
2013-01-02 02:31:00,61.2,58.9,29.98,SW,222,0.0,0.0,92,0.00,,,0.00,Wunderground v.1.15,2013-01-02 07:31:00,
2013-01-02 02:36:00,61.0,58.7,29.98,SW,222,0.0,0.0,92,0.00,,,0.00,Wunderground v.1.15,2013-01-02 07:36:00,
2013-01-02 02:41:00,60.9,58.6,29.98,SW,222,0.0,0.0,92,0.00,,,0.00,Wunderground v.1.15,2013-01-02 07:41:00,
2013-01-02 02:46:00,60.7,58.4,29.99,SW,222,0.0,0.0,92,0.00,,,0.00,Wunderground v.1.15,2013-01-02 07:46:00,
2013-01-02 02:51:00,60.7,58.7,29.99,SW,222,0.0,0.0,93,0.00,,,0.00,Wunderground v.1.15,2013-01-02 07:51:00,
2013-01-02 02:56:00,60.7,58.7,29.99,SW,222,0.0,0.0,93,0.00,,,0.00,Wunderground v.1.15,2013-01-02 07:56:00,
2013-01-02 03:01:00,60.7,58.7,29.99,SW,222,0.0,0.0,93,0.00,,,0.00,Wunderground v.1.15,2013-01-02 08:01:00,
2013-01-02 03:06:00,60.5,58.5,29.99,SW,222,0.0,0.0,93,0.00,,,0.00,Wunderground v.1.15,2013-01-02 08:06:00,
2013-01-02 03:11:00,60.5,58.5,29.99,SW,222,0.0,0.0,93,0.00,,,0.00,Wunderground v.1.15,2013-01-02 08:11:00,
2013-01-02 03:16:00,60.7,58.7,30.00,SW,222,0.0,0.0,93,0.00,,,0.00,Wunderground v.1.15,2013-01-02 08:16:00,
2013-01-02 03:21:00,60.7,59.0,30.00,SW,222,0.0,0.0,94,0.00,,,0.00,Wunderground v.1.15,2013-01-02 08:21:00,
2013-01-02 03:26:00,60.7,59.0,30.00,SW,222,0.0,0.0,94,0.00,,,0.00,Wunderground v.1.15,2013-01-02 08:26:00,
2013-01-02 03:31:00,60.7,59.0,30.00,SW,222,0.0,0.0,94,0.00,,,0.00,Wunderground v.1.15,2013-01-02 08:31:00,
2013-01-02 03:36:00,60.7,59.0,30.00,SW,222,0.0,0.0,94,0.00,,,0.00,Wunderground v.1.15,2013-01-02 08:36:00,
2013-01-02 03:41:00,60.7,59.0,30.00,SW,222,0.0,0.0,94,0.00,,,0.00,Wunderground v.1.15,2013-01-02 08:41:00,
2013-01-02 03:46:00,60.7,59.0,29.99,SW,222,0.0,0.0,94,0.00,,,0.00,Wunderground v.1.15,2013-01-02 08:46:00,
2013-01-02 03:51:00,60.5,58.8,29.99,SW,222,0.0,0.0,94,0.00,,,0.00,Wunderground v.1.15,2013-01-02 08:51:00,
2013-01-02 03:56:00,60.5,58.8,29.99,SW,222,0.0,0.0,94,0.00,,,0.00,Wunderground v.1.15,2013-01-02 08:56:00,
2013-01-02 04:01:00,60.4,58.7,29.99,SW,222,0.0,0.0,94,0.00,,,0.00,Wunderground v.1.15,2013-01-02 09:01:00,
2013-01-02 04:07:00,60.2,58.5,29.99,SW,222,0.0,0.0,94,0.00,,,0.00,Wunderground v.1.15,2013-01-02 09:07:00,
2013-01-02 04:12:00,60.1,58.4,29.99,SW,222,0.0,0.0,94,0.00,,,0.00,Wunderground v.1.15,2013-01-02 09:12:00,
2013-01-02 04:17:00,59.9,58.2,29.99,SW,222,0.0,0.0,94,0.00,,,0.00,Wunderground v.1.15,2013-01-02 09:17:00,
2013-01-02 04:22:00,59.9,58.2,29.99,SW,222,0.0,0.0,94,0.00,,,0.00,Wunderground v.1.15,2013-01-02 09:22:00,
2013-01-02 04:27:00,59.9,58.2,29.99,SW,222,0.0,0.0,94,0.00,,,0.00,Wunderground v.1.15,2013-01-02 09:27:00,
2013-01-02 04:32:00,59.8,58.1,29.99,SW,222,0.0,0.0,94,0.00,,,0.00,Wunderground v.1.15,2013-01-02 09:32:00,
2013-01-02 04:37:00,59.9,58.5,29.99,SW,222,0.0,0.0,95,0.00,,,0.00,Wunderground v.1.15,2013-01-02 09:37:00,
2013-01-02 04:42:00,59.9,58.5,29.99,SW,222,0.0,0.0,95,0.00,,,0.00,Wunderground v.1.15,2013-01-02 09:42:00,
2013-01-02 04:48:00,59.9,58.5,29.99,SW,222,0.0,0.0,95,0.00,,,0.00,Wunderground v.1.15,2013-01-02 09:48:00,
2013-01-02 04:53:00,59.9,58.5,29.99,SW,222,0.0,0.0,95,0.00,,,0.00,Wunderground v.1.15,2013-01-02 09:53:00,
2013-01-02 04:58:00,59.9,58.5,29.99,SW,222,0.0,0.0,95,0.00,,,0.00,Wunderground v.1.15,2013-01-02 09:58:00,
2013-01-02 05:03:00,59.9,58.5,29.99,SW,222,0.0,0.0,95,0.00,,,0.00,Wunderground v.1.15,2013-01-02 10:03:00,
2013-01-02 05:08:00,59.9,58.5,29.99,SW,222,0.0,0.0,95,0.00,,,0.00,Wunderground v.1.15,2013-01-02 10:08:00,
2013-01-02 05:13:00,59.9,58.5,29.99,SW,222,0.0,0.0,95,0.00,,,0.00,Wunderground v.1.15,2013-01-02 10:13:00,
2013-01-02 05:19:00,59.9,58.5,29.99,SW,222,0.0,0.0,95,0.00,,,0.00,Wunderground v.1.15,2013-01-02 10:19:00,
2013-01-02 05:24:00,59.8,58.4,29.99,SW,222,0.0,0.0,95,0.00,,,0.00,Wunderground v.1.15,2013-01-02 10:24:00,
2013-01-02 05:29:00,59.8,58.4,29.99,SW,222,0.0,0.0,95,0.00,,,0.00,Wunderground v.1.15,2013-01-02 10:29:00,
2013-01-02 05:34:00,59.6,58.2,29.99,SW,222,0.0,0.0,95,0.00,,,0.00,Wunderground v.1.15,2013-01-02 10:34:00,
2013-01-02 05:39:00,59.5,58.1,29.99,SW,222,0.0,0.0,95,0.00,,,0.00,Wunderground v.1.15,2013-01-02 10:39:00,
2013-01-02 05:44:00,59.5,58.1,30.00,SW,222,0.0,0.0,95,0.00,,,0.00,Wunderground v.1.15,2013-01-02 10:44:00,
2013-01-02 05:49:00,59.3,57.9,30.00,SW,222,0.0,0.0,95,0.00,,,0.00,Wunderground v.1.15,2013-01-02 10:49:00,
2013-01-02 05:54:00,59.2,57.8,30.00,SW,222,0.0,0.0,95,0.00,,,0.00,Wunderground v.1.15,2013-01-02 10:54:00,
2013-01-02 05:59:00,59.0,57.6,30.00,SW,222,0.0,0.0,95,0.00,,,0.00,Wunderground v.1.15,2013-01-02 10:59:00,
2013-01-02 06:04:00,58.9,57.5,30.00,SW,222,0.0,0.0,95,0.00,,,0.00,Wunderground v.1.15,2013-01-02 11:04:00,
2013-01-02 06:10:00,58.7,57.3,30.00,SW,222,0.0,0.0,95,0.00,,,0.00,Wunderground v.1.15,2013-01-02 11:10:00,
2013-01-02 06:15:00,58.7,57.3,30.00,SW,222,0.0,0.0,95,0.00,,,0.00,Wunderground v.1.15,2013-01-02 11:15:00,
2013-01-02 06:20:00,58.6,57.5,30.00,SW,222,0.0,0.0,96,0.00,,,0.00,Wunderground v.1.15,2013-01-02 11:20:00,
2013-01-02 06:25:00,58.4,57.3,30.00,SW,222,0.0,0.0,96,0.00,,,0.00,Wunderground v.1.15,2013-01-02 11:25:00,
2013-01-02 06:30:00,58.4,57.3,30.01,SW,222,0.0,0.0,96,0.00,,,0.00,Wunderground v.1.15,2013-01-02 11:30:00,
2013-01-02 06:35:00,58.3,57.2,30.01,SW,222,0.0,0.0,96,0.00,,,0.00,Wunderground v.1.15,2013-01-02 11:35:00,
2013-01-02 06:40:00,58.4,57.3,30.01,SW,222,0.0,0.0,96,0.00,,,0.00,Wunderground v.1.15,2013-01-02 11:40:00,
2013-01-02 06:46:00,58.3,57.2,30.01,SW,222,0.0,0.0,96,0.00,,,0.00,Wunderground v.1.15,2013-01-02 11:46:00,
2013-01-02 06:51:00,58.1,57.0,30.01,SW,222,0.0,0.0,96,0.00,,,0.00,Wunderground v.1.15,2013-01-02 11:51:00,
2013-01-02 06:56:00,58.1,57.0,30.01,SW,222,0.0,0.0,96,0.00,,,0.00,Wunderground v.1.15,2013-01-02 11:56:00,
2013-01-02 07:01:00,58.0,56.9,30.01,SW,222,0.0,0.0,96,0.00,,,0.00,Wunderground v.1.15,2013-01-02 12:01:00,
2013-01-02 07:06:00,57.8,56.7,30.01,SW,222,0.0,0.0,96,0.00,,,0.00,Wunderground v.1.15,2013-01-02 12:06:00,
2013-01-02 07:11:00,57.6,56.5,30.01,SW,222,0.0,0.0,96,0.00,,,0.00,Wunderground v.1.15,2013-01-02 12:11:00,
2013-01-02 07:16:00,57.5,56.4,30.01,SW,222,0.0,0.0,96,0.00,,,0.00,Wunderground v.1.15,2013-01-02 12:16:00,
2013-01-02 07:21:00,57.3,56.2,30.01,SW,222,0.0,0.0,96,0.00,,,0.00,Wunderground v.1.15,2013-01-02 12:21:00,
2013-01-02 07:27:00,57.2,56.1,30.01,SW,222,0.0,0.0,96,0.00,,,0.00,Wunderground v.1.15,2013-01-02 12:27:00,
2013-01-02 07:32:00,57.3,56.2,30.01,SW,222,0.0,0.0,96,0.00,,,0.00,Wunderground v.1.15,2013-01-02 12:32:00,
2013-01-02 07:37:00,57.3,56.2,30.01,SW,222,0.0,0.0,96,0.00,,,0.00,Wunderground v.1.15,2013-01-02 12:37:00,
2013-01-02 07:43:00,57.3,56.2,30.01,SW,222,0.0,0.0,96,0.00,,,0.00,Wunderground v.1.15,2013-01-02 12:43:00,
2013-01-02 07:48:00,57.3,56.2,30.01,SW,222,0.0,0.0,96,0.00,,,0.00,Wunderground v.1.15,2013-01-02 12:48:00,
2013-01-02 07:53:00,57.3,56.5,30.01,SW,222,0.0,0.0,97,0.00,,,0.00,Wunderground v.1.15,2013-01-02 12:53:00,
2013-01-02 07:59:00,57.5,56.7,30.01,SW,222,0.0,0.0,97,0.00,,,0.00,Wunderground v.1.15,2013-01-02 12:59:00,
2013-01-02 08:04:00,58.0,57.2,30.01,SW,222,0.0,1.0,97,0.00,,,0.00,Wunderground v.1.15,2013-01-02 13:04:00,
2013-01-02 08:09:00,58.4,57.6,30.01,SW,222,0.0,1.0,97,0.00,,,0.00,Wunderground v.1.15,2013-01-02 13:09:00,
2013-01-02 08:14:00,58.7,58.1,30.02,SW,222,0.0,0.0,98,0.00,,,0.00,Wunderground v.1.15,2013-01-02 13:14:00,
2013-01-02 08:19:00,59.2,58.6,30.02,SW,222,0.0,0.0,98,0.00,,,0.00,Wunderground v.1.15,2013-01-02 13:19:00,
2013-01-02 08:24:00,59.6,59.0,30.02,SW,223,0.0,0.0,98,0.00,,,0.00,Wunderground v.1.15,2013-01-02 13:24:00,
2013-01-02 08:29:00,60.2,59.9,30.02,SSW,209,0.0,0.0,99,0.00,,,0.00,Wunderground v.1.15,2013-01-02 13:29:00,
2013-01-02 08:35:00,60.7,60.4,30.02,SSW,198,0.0,0.0,99,0.00,,,0.00,Wunderground v.1.15,2013-01-02 13:35:00,
2013-01-02 08:40:00,61.2,60.9,30.02,SSW,198,0.0,0.0,99,0.00,,,0.00,Wunderground v.1.15,2013-01-02 13:40:00,
2013-01-02 08:46:00,61.8,61.5,30.02,SSW,198,0.0,0.0,99,0.00,,,0.00,Wunderground v.1.15,2013-01-02 13:46:00,
2013-01-02 08:51:00,62.4,62.1,30.02,SSW,198,0.0,0.0,99,0.00,,,0.00,Wunderground v.1.15,2013-01-02 13:51:00,
2013-01-02 08:56:00,62.7,62.4,30.02,SSW,197,0.0,0.0,99,0.00,,,0.00,Wunderground v.1.15,2013-01-02 13:56:00,
2013-01-02 09:01:00,63.2,62.9,30.03,WSW,243,0.0,0.0,99,0.00,,,0.00,Wunderground v.1.15,2013-01-02 14:01:00,
2013-01-02 09:07:00,63.5,63.2,30.03,WSW,243,0.0,1.0,99,0.00,,,0.00,Wunderground v.1.15,2013-01-02 14:07:00,
2013-01-02 09:12:00,64.2,63.9,30.03,SW,224,0.0,0.0,99,0.00,,,0.00,Wunderground v.1.15,2013-01-02 14:12:00,
2013-01-02 09:17:00,64.7,64.1,30.03,SW,226,0.0,0.0,98,0.00,,,0.00,Wunderground v.1.15,2013-01-02 14:17:00,
2013-01-02 09:23:00,65.3,64.7,30.03,SW,226,0.0,0.0,98,0.00,,,0.00,Wunderground v.1.15,2013-01-02 14:23:00,
2013-01-02 09:28:00,65.8,64.9,30.03,SW,232,0.0,0.0,97,0.00,,,0.00,Wunderground v.1.15,2013-01-02 14:28:00,
2013-01-02 09:33:00,66.4,65.2,30.03,SW,232,0.0,0.0,96,0.00,,,0.00,Wunderground v.1.15,2013-01-02 14:33:00,
2013-01-02 09:38:00,66.9,65.7,30.03,SW,236,0.0,1.0,96,0.00,,,0.00,Wunderground v.1.15,2013-01-02 14:38:00,
2013-01-02 09:43:00,67.6,65.8,30.03,West,259,3.0,4.0,94,0.00,,,0.00,Wunderground v.1.15,2013-01-02 14:43:00,
2013-01-02 09:48:00,68.4,66.0,30.03,WSW,248,0.0,4.0,92,0.00,,,0.00,Wunderground v.1.15,2013-01-02 14:48:00,
2013-01-02 09:53:00,68.9,66.2,30.03,WSW,255,0.0,0.0,91,0.00,,,0.00,Wunderground v.1.15,2013-01-02 14:53:00,
2013-01-02 09:59:00,69.6,66.2,30.03,SW,217,0.0,1.0,89,0.00,,,0.00,Wunderground v.1.15,2013-01-02 14:59:00,
2013-01-02 10:04:00,70.1,66.0,30.03,WSW,243,3.0,4.0,87,0.00,,,0.00,Wunderground v.1.15,2013-01-02 15:04:00,
2013-01-02 10:09:00,70.6,65.9,30.03,WNW,288,2.0,6.0,85,0.00,,,0.00,Wunderground v.1.15,2013-01-02 15:09:00,
2013-01-02 10:15:00,71.3,66.2,30.03,West,266,4.0,7.0,84,0.00,,,0.00,Wunderground v.1.15,2013-01-02 15:15:00,
2013-01-02 10:20:00,71.8,66.0,30.03,WSW,253,0.0,1.0,82,0.00,,,0.00,Wunderground v.1.15,2013-01-02 15:20:00,
2013-01-02 10:25:00,72.5,66.0,30.03,SW,234,3.0,5.0,80,0.00,,,0.00,Wunderground v.1.15,2013-01-02 15:25:00,
2013-01-02 10:30:00,73.0,66.1,30.03,West,266,0.0,1.0,79,0.00,,,0.00,Wunderground v.1.15,2013-01-02 15:30:00,
2013-01-02 10:35:00,73.3,66.0,30.03,WSW,246,0.0,1.0,78,0.00,,,0.00,Wunderground v.1.15,2013-01-02 15:35:00,
2013-01-02 10:40:00,73.7,65.7,30.03,SW,236,0.0,0.0,76,0.00,,,0.00,Wunderground v.1.15,2013-01-02 15:40:00,
2013-01-02 10:45:00,74.0,66.3,30.03,SSW,207,0.0,0.0,77,0.00,,,0.00,Wunderground v.1.15,2013-01-02 15:45:00,
2013-01-02 10:50:00,74.2,66.1,30.03,SW,236,0.0,0.0,76,0.00,,,0.00,Wunderground v.1.15,2013-01-02 15:50:00,
2013-01-02 10:55:00,74.6,65.8,30.03,WSW,253,0.0,7.0,74,0.00,,,0.00,Wunderground v.1.15,2013-01-02 15:55:00,
2013-01-02 11:00:00,75.3,66.0,30.03,West,269,2.0,5.0,73,0.00,,,0.00,Wunderground v.1.15,2013-01-02 16:00:00,
2013-01-02 11:06:00,75.6,65.1,30.03,SW,234,4.0,7.0,70,0.00,,,0.00,Wunderground v.1.15,2013-01-02 16:06:00,
2013-01-02 11:11:00,76.0,65.1,30.03,SW,221,7.0,7.0,69,0.00,,,0.00,Wunderground v.1.15,2013-01-02 16:11:00,
2013-01-02 11:16:00,76.1,64.8,30.02,WSW,249,5.0,7.0,68,0.00,,,0.00,Wunderground v.1.15,2013-01-02 16:16:00,
2013-01-02 11:22:00,76.1,64.3,30.02,WSW,248,5.0,7.0,67,0.00,,,0.00,Wunderground v.1.15,2013-01-02 16:22:00,
2013-01-02 11:27:00,76.3,65.0,30.02,SW,232,0.0,9.0,68,0.00,,,0.00,Wunderground v.1.15,2013-01-02 16:27:00,
2013-01-02 11:32:00,76.5,64.7,30.01,WSW,244,7.0,7.0,67,0.00,,,0.00,Wunderground v.1.15,2013-01-02 16:32:00,
2013-01-02 11:38:00,76.3,64.5,30.01,WSW,245,0.0,7.0,67,0.00,,,0.00,Wunderground v.1.15,2013-01-02 16:38:00,
2013-01-02 11:43:00,76.0,65.1,30.01,WSW,240,0.0,4.0,69,0.00,,,0.00,Wunderground v.1.15,2013-01-02 16:43:00,
2013-01-02 11:48:00,75.8,64.5,30.01,SW,228,0.0,4.0,68,0.00,,,0.00,Wunderground v.1.15,2013-01-02 16:48:00,
2013-01-02 11:53:00,75.4,64.1,30.01,WSW,239,0.0,1.0,68,0.00,,,0.00,Wunderground v.1.15,2013-01-02 16:53:00,
2013-01-02 11:58:00,75.8,64.5,30.01,WSW,246,0.0,1.0,68,0.00,,,0.00,Wunderground v.1.15,2013-01-02 16:58:00,
2013-01-02 12:03:00,76.8,64.6,30.00,WSW,237,3.0,6.0,66,0.00,,,0.00,Wunderground v.1.15,2013-01-02 17:03:00,
2013-01-02 12:08:00,77.9,64.7,30.00,WSW,246,0.0,6.0,64,0.00,,,0.00,Wunderground v.1.15,2013-01-02 17:08:00,
2013-01-02 12:13:00,79.2,66.0,30.00,South,191,2.0,2.0,64,0.00,,,0.00,Wunderground v.1.15,2013-01-02 17:13:00,
2013-01-02 12:18:00,79.9,65.2,29.99,South,172,0.0,6.0,61,0.00,,,0.00,Wunderground v.1.15,2013-01-02 17:18:00,
2013-01-02 12:23:00,80.5,65.8,29.99,SSW,208,0.0,1.0,61,0.00,,,0.00,Wunderground v.1.15,2013-01-02 17:23:00,
2013-01-02 12:28:00,80.9,64.7,29.99,WSW,255,0.0,1.0,58,0.00,,,0.00,Wunderground v.1.15,2013-01-02 17:28:00,
2013-01-02 12:33:00,81.1,65.4,29.98,West,269,4.0,4.0,59,0.00,,,0.00,Wunderground v.1.15,2013-01-02 17:33:00,
2013-01-02 12:38:00,81.2,64.5,29.98,WSW,245,3.0,9.0,57,0.00,,,0.00,Wunderground v.1.15,2013-01-02 17:38:00,
2013-01-02 12:44:00,80.9,64.2,29.98,West,278,3.0,6.0,57,0.00,,,0.00,Wunderground v.1.15,2013-01-02 17:44:00,
2013-01-02 12:49:00,81.1,63.9,29.98,WSW,248,2.0,10.0,56,0.00,,,0.00,Wunderground v.1.15,2013-01-02 17:49:00,
2013-01-02 12:54:00,81.2,63.5,29.98,WSW,249,0.0,2.0,55,0.00,,,0.00,Wunderground v.1.15,2013-01-02 17:54:00,
2013-01-02 12:59:00,80.9,63.2,29.97,WSW,243,2.0,5.0,55,0.00,,,0.00,Wunderground v.1.15,2013-01-02 17:59:00,
2013-01-02 13:04:00,79.9,63.3,29.97,WSW,250,0.0,7.0,57,0.00,,,0.00,Wunderground v.1.15,2013-01-02 18:04:00,
2013-01-02 13:10:00,79.8,64.2,29.97,West,259,2.0,2.0,59,0.00,,,0.00,Wunderground v.1.15,2013-01-02 18:10:00,
2013-01-02 13:15:00,79.4,63.8,29.96,NW,311,0.0,5.0,59,0.00,,,0.00,Wunderground v.1.15,2013-01-02 18:15:00,
2013-01-02 13:20:00,79.0,63.4,29.96,WSW,237,0.0,2.0,59,0.00,,,0.00,Wunderground v.1.15,2013-01-02 18:20:00,
2013-01-02 13:25:00,78.6,63.1,29.96,WSW,243,2.0,5.0,59,0.00,,,0.00,Wunderground v.1.15,2013-01-02 18:25:00,
2013-01-02 13:30:00,78.5,62.5,29.95,West,273,1.0,2.0,58,0.00,,,0.00,Wunderground v.1.15,2013-01-02 18:30:00,
2013-01-02 13:35:00,78.8,63.3,29.95,WSW,248,0.0,3.0,59,0.00,,,0.00,Wunderground v.1.15,2013-01-02 18:35:00,
2013-01-02 13:40:00,79.6,62.0,29.95,West,271,0.0,1.0,55,0.00,,,0.00,Wunderground v.1.15,2013-01-02 18:40:00,
2013-01-02 13:45:00,80.5,63.4,29.95,SW,221,0.0,2.0,56,0.00,,,0.00,Wunderground v.1.15,2013-01-02 18:45:00,
2013-01-02 13:50:00,81.1,60.7,29.95,NW,304,1.0,3.0,50,0.00,,,0.00,Wunderground v.1.15,2013-01-02 18:50:00,
2013-01-02 13:56:00,80.7,60.9,29.95,WNW,290,0.0,3.0,51,0.00,,,0.00,Wunderground v.1.15,2013-01-02 18:56:00,
2013-01-02 14:01:00,80.3,60.5,29.94,WNW,290,0.0,0.0,51,0.00,,,0.00,Wunderground v.1.15,2013-01-02 19:01:00,
2013-01-02 14:06:00,80.3,61.6,29.94,WNW,288,0.0,0.0,53,0.00,,,0.00,Wunderground v.1.15,2013-01-02 19:06:00,
2013-01-02 14:12:00,80.7,62.0,29.94,NW,323,2.0,5.0,53,0.00,,,0.00,Wunderground v.1.15,2013-01-02 19:12:00,
2013-01-02 14:17:00,81.1,61.3,29.93,West,266,0.0,5.0,51,0.00,,,0.00,Wunderground v.1.15,2013-01-02 19:17:00,
2013-01-02 14:22:00,81.2,61.9,29.93,WSW,248,0.0,3.0,52,0.00,,,0.00,Wunderground v.1.15,2013-01-02 19:22:00,
2013-01-02 14:27:00,81.2,61.4,29.93,WNW,285,0.0,4.0,51,0.00,,,0.00,Wunderground v.1.15,2013-01-02 19:27:00,
2013-01-02 14:33:00,81.2,62.4,29.93,WSW,252,0.0,4.0,53,0.00,,,0.00,Wunderground v.1.15,2013-01-02 19:33:00,
2013-01-02 14:38:00,80.9,61.6,29.93,SW,236,3.0,6.0,52,0.00,,,0.00,Wunderground v.1.15,2013-01-02 19:38:00,
2013-01-02 14:43:00,80.5,61.3,29.93,West,264,0.0,7.0,52,0.00,,,0.00,Wunderground v.1.15,2013-01-02 19:43:00,
2013-01-02 14:48:00,80.3,61.6,29.93,WSW,245,2.0,7.0,53,0.00,,,0.00,Wunderground v.1.15,2013-01-02 19:48:00,
2013-01-02 14:53:00,80.1,60.9,29.93,West,278,2.0,5.0,52,0.00,,,0.00,Wunderground v.1.15,2013-01-02 19:53:00,
2013-01-02 14:59:00,80.1,60.9,29.93,WSW,244,3.0,5.0,52,0.00,,,0.00,Wunderground v.1.15,2013-01-02 19:59:00,
2013-01-02 15:04:00,80.3,62.1,29.93,South,179,0.0,6.0,54,0.00,,,0.00,Wunderground v.1.15,2013-01-02 20:04:00,
2013-01-02 15:09:00,79.9,61.2,29.93,WSW,237,0.0,6.0,53,0.00,,,0.00,Wunderground v.1.15,2013-01-02 20:09:00,
2013-01-02 15:14:00,79.8,61.1,29.94,South,184,0.0,4.0,53,0.00,,,0.00,Wunderground v.1.15,2013-01-02 20:14:00,
2013-01-02 15:19:00,79.6,61.5,29.94,SSW,201,2.0,10.0,54,0.00,,,0.00,Wunderground v.1.15,2013-01-02 20:19:00,
2013-01-02 15:24:00,79.4,61.3,29.94,WSW,238,0.0,4.0,54,0.00,,,0.00,Wunderground v.1.15,2013-01-02 20:24:00,
2013-01-02 15:29:00,79.2,61.6,29.94,SW,234,3.0,4.0,55,0.00,,,0.00,Wunderground v.1.15,2013-01-02 20:29:00,
2013-01-02 15:34:00,79.2,61.1,29.94,SW,235,0.0,3.0,54,0.00,,,0.00,Wunderground v.1.15,2013-01-02 20:34:00,
2013-01-02 15:40:00,79.4,61.8,29.94,West,261,2.0,2.0,55,0.00,,,0.00,Wunderground v.1.15,2013-01-02 20:40:00,
2013-01-02 15:45:00,79.6,61.5,29.94,West,262,0.0,6.0,54,0.00,,,0.00,Wunderground v.1.15,2013-01-02 20:45:00,
2013-01-02 15:50:00,79.6,61.5,29.94,WSW,240,2.0,2.0,54,0.00,,,0.00,Wunderground v.1.15,2013-01-02 20:50:00,
2013-01-02 15:56:00,79.9,61.8,29.94,WSW,240,0.0,3.0,54,0.00,,,0.00,Wunderground v.1.15,2013-01-02 20:56:00,
2013-01-02 16:01:00,80.1,62.5,29.94,WSW,241,0.0,1.0,55,0.00,,,0.00,Wunderground v.1.15,2013-01-02 21:01:00,
2013-01-02 16:06:00,80.3,62.1,29.94,WNW,282,0.0,1.0,54,0.00,,,0.00,Wunderground v.1.15,2013-01-02 21:06:00,
2013-01-02 16:11:00,80.5,62.3,29.94,West,276,0.0,0.0,54,0.00,,,0.00,Wunderground v.1.15,2013-01-02 21:11:00,
2013-01-02 16:17:00,80.3,61.6,29.95,West,276,0.0,0.0,53,0.00,,,0.00,Wunderground v.1.15,2013-01-02 21:17:00,
2013-01-02 16:22:00,80.1,63.5,29.95,WNW,287,0.0,1.0,57,0.00,,,0.00,Wunderground v.1.15,2013-01-02 21:22:00,
2013-01-02 16:27:00,79.8,63.7,29.95,WNW,287,0.0,1.0,58,0.00,,,0.00,Wunderground v.1.15,2013-01-02 21:27:00,
2013-01-02 16:32:00,79.6,64.5,29.95,East,79,0.0,2.0,60,0.00,,,0.00,Wunderground v.1.15,2013-01-02 21:32:00,
2013-01-02 16:37:00,78.6,64.5,29.95,SE,134,0.0,2.0,62,0.00,,,0.00,Wunderground v.1.15,2013-01-02 21:37:00,
2013-01-02 16:42:00,77.6,64.5,29.95,SE,127,0.0,0.0,64,0.00,,,0.00,Wunderground v.1.15,2013-01-02 21:42:00,
2013-01-02 16:47:00,77.0,64.8,29.95,ESE,115,0.0,0.0,66,0.00,,,0.00,Wunderground v.1.15,2013-01-02 21:47:00,
2013-01-02 16:52:00,76.5,64.7,29.95,ESE,115,0.0,0.0,67,0.00,,,0.00,Wunderground v.1.15,2013-01-02 21:52:00,
2013-01-02 16:57:00,76.1,64.8,29.95,ESE,115,0.0,0.0,68,0.00,,,0.00,Wunderground v.1.15,2013-01-02 21:57:00,
2013-01-02 17:03:00,75.8,64.9,29.95,ESE,115,0.0,1.0,69,0.00,,,0.00,Wunderground v.1.15,2013-01-02 22:03:00,
2013-01-02 17:08:00,75.4,64.9,29.95,SSE,148,0.0,1.0,70,0.00,,,0.00,Wunderground v.1.15,2013-01-02 22:08:00,
2013-01-02 17:13:00,75.1,65.1,29.95,SSE,148,0.0,0.0,71,0.00,,,0.00,Wunderground v.1.15,2013-01-02 22:13:00,
2013-01-02 17:18:00,74.9,64.9,29.96,ESE,116,0.0,0.0,71,0.00,,,0.00,Wunderground v.1.15,2013-01-02 22:18:00,
2013-01-02 17:23:00,74.7,65.1,29.96,ESE,116,0.0,0.0,72,0.00,,,0.00,Wunderground v.1.15,2013-01-02 22:23:00,
2013-01-02 17:28:00,74.4,65.2,29.96,ESE,116,0.0,2.0,73,0.00,,,0.00,Wunderground v.1.15,2013-01-02 22:28:00,
2013-01-02 17:33:00,74.0,64.8,29.96,ESE,116,0.0,0.0,73,0.00,,,0.00,Wunderground v.1.15,2013-01-02 22:33:00,
2013-01-02 17:38:00,73.7,64.9,29.96,ESE,116,0.0,0.0,74,0.00,,,0.00,Wunderground v.1.15,2013-01-02 22:38:00,
2013-01-02 17:43:00,73.3,64.5,29.96,ESE,116,0.0,0.0,74,0.00,,,0.00,Wunderground v.1.15,2013-01-02 22:43:00,
2013-01-02 17:49:00,73.0,64.6,29.97,ESE,116,0.0,0.0,75,0.00,,,0.00,Wunderground v.1.15,2013-01-02 22:49:00,
2013-01-02 17:54:00,72.7,65.1,29.97,ESE,116,0.0,0.0,77,0.00,,,0.00,Wunderground v.1.15,2013-01-02 22:54:00,
2013-01-02 17:59:00,72.3,65.1,29.97,ESE,116,0.0,0.0,78,0.00,,,0.00,Wunderground v.1.15,2013-01-02 22:59:00,
2013-01-02 18:04:00,72.0,64.8,29.97,ESE,116,0.0,0.0,78,0.00,,,0.00,Wunderground v.1.15,2013-01-02 23:04:00,
2013-01-02 18:09:00,71.8,64.6,29.97,ESE,116,0.0,0.0,78,0.00,,,0.00,Wunderground v.1.15,2013-01-02 23:09:00,
2013-01-02 18:14:00,71.5,64.6,29.97,ESE,116,0.0,0.0,79,0.00,,,0.00,Wunderground v.1.15,2013-01-02 23:14:00,
2013-01-02 18:19:00,71.3,64.8,29.97,ESE,116,0.0,0.0,80,0.00,,,0.00,Wunderground v.1.15,2013-01-02 23:19:00,
2013-01-02 18:24:00,70.9,64.8,29.97,ESE,116,0.0,0.0,81,0.00,,,0.00,Wunderground v.1.15,2013-01-02 23:24:00,
2013-01-02 18:29:00,70.8,65.0,29.98,ESE,116,0.0,0.0,82,0.00,,,0.00,Wunderground v.1.15,2013-01-02 23:29:00,
2013-01-02 18:34:00,70.6,65.2,29.98,ESE,116,0.0,0.0,83,0.00,,,0.00,Wunderground v.1.15,2013-01-02 23:34:00,
2013-01-02 18:40:00,70.4,65.0,29.98,ESE,116,0.0,0.0,83,0.00,,,0.00,Wunderground v.1.15,2013-01-02 23:40:00,
2013-01-02 18:45:00,70.1,64.7,29.98,ESE,116,0.0,0.0,83,0.00,,,0.00,Wunderground v.1.15,2013-01-02 23:45:00,
2013-01-02 18:50:00,69.9,64.8,29.98,ESE,116,0.0,0.0,84,0.00,,,0.00,Wunderground v.1.15,2013-01-02 23:50:00,
2013-01-02 18:55:00,69.8,64.7,29.98,ESE,116,0.0,0.0,84,0.00,,,0.00,Wunderground v.1.15,2013-01-02 23:55:00,
2013-01-02 19:01:00,69.4,64.4,29.98,ESE,116,0.0,0.0,84,0.00,,,0.00,Wunderground v.1.15,2013-01-03 00:01:00,
2013-01-02 19:06:00,69.3,64.9,29.98,ESE,116,0.0,0.0,86,0.00,,,0.00,Wunderground v.1.15,2013-01-03 00:06:00,
2013-01-02 19:11:00,68.9,64.5,29.98,ESE,116,0.0,0.0,86,0.00,,,0.00,Wunderground v.1.15,2013-01-03 00:11:00,
2013-01-02 19:17:00,68.8,64.4,29.98,ESE,116,0.0,0.0,86,0.00,,,0.00,Wunderground v.1.15,2013-01-03 00:17:00,
2013-01-02 19:22:00,68.6,64.6,29.98,ESE,116,0.0,0.0,87,0.00,,,0.00,Wunderground v.1.15,2013-01-03 00:22:00,
2013-01-02 19:27:00,68.4,64.4,29.98,ESE,116,0.0,0.0,87,0.00,,,0.00,Wunderground v.1.15,2013-01-03 00:27:00,
2013-01-02 19:32:00,68.3,64.3,29.99,ESE,116,0.0,0.0,87,0.00,,,0.00,Wunderground v.1.15,2013-01-03 00:32:00,
2013-01-02 19:37:00,67.9,63.9,29.99,ESE,116,0.0,0.0,87,0.00,,,0.00,Wunderground v.1.15,2013-01-03 00:37:00,
2013-01-02 19:42:00,67.8,63.8,29.99,ESE,116,0.0,0.0,87,0.00,,,0.00,Wunderground v.1.15,2013-01-03 00:42:00,
2013-01-02 19:47:00,67.6,63.9,29.99,ESE,116,0.0,0.0,88,0.00,,,0.00,Wunderground v.1.15,2013-01-03 00:47:00,
2013-01-02 19:52:00,67.4,63.7,29.99,ESE,116,0.0,0.0,88,0.00,,,0.00,Wunderground v.1.15,2013-01-03 00:52:00,
2013-01-02 19:58:00,67.3,63.6,29.99,ESE,116,0.0,0.0,88,0.00,,,0.00,Wunderground v.1.15,2013-01-03 00:58:00,
2013-01-02 20:03:00,67.1,63.4,29.99,ESE,116,0.0,0.0,88,0.00,,,0.00,Wunderground v.1.15,2013-01-03 01:03:00,
2013-01-02 20:08:00,66.9,63.2,29.99,ESE,116,0.0,0.0,88,0.00,,,0.00,Wunderground v.1.15,2013-01-03 01:08:00,
2013-01-02 20:13:00,66.6,62.9,29.99,ESE,116,0.0,0.0,88,0.00,,,0.00,Wunderground v.1.15,2013-01-03 01:13:00,
2013-01-02 20:18:00,66.4,63.1,30.00,ESE,116,0.0,0.0,89,0.00,,,0.00,Wunderground v.1.15,2013-01-03 01:18:00,
2013-01-02 20:24:00,66.3,63.0,30.00,ESE,116,0.0,0.0,89,0.00,,,0.00,Wunderground v.1.15,2013-01-03 01:24:00,
2013-01-02 20:29:00,66.1,62.8,30.00,ESE,116,0.0,0.0,89,0.00,,,0.00,Wunderground v.1.15,2013-01-03 01:29:00,
2013-01-02 20:34:00,66.0,62.7,30.00,ESE,116,0.0,0.0,89,0.00,,,0.00,Wunderground v.1.15,2013-01-03 01:34:00,
2013-01-02 20:39:00,66.0,63.0,30.00,ESE,116,0.0,0.0,90,0.00,,,0.00,Wunderground v.1.15,2013-01-03 01:39:00,
2013-01-02 20:44:00,65.8,62.8,30.00,ESE,116,0.0,0.0,90,0.00,,,0.00,Wunderground v.1.15,2013-01-03 01:44:00,
2013-01-02 20:49:00,65.6,62.9,30.00,ESE,116,0.0,0.0,91,0.00,,,0.00,Wunderground v.1.15,2013-01-03 01:49:00,
2013-01-02 20:54:00,65.6,62.9,30.00,ESE,116,0.0,0.0,91,0.00,,,0.00,Wunderground v.1.15,2013-01-03 01:54:00,
2013-01-02 20:59:00,65.5,62.8,30.00,ESE,116,0.0,0.0,91,0.00,,,0.00,Wunderground v.1.15,2013-01-03 01:59:00,
2013-01-02 21:04:00,65.3,62.6,30.00,ESE,116,0.0,0.0,91,0.00,,,0.00,Wunderground v.1.15,2013-01-03 02:04:00,
2013-01-02 21:09:00,65.2,62.5,30.00,ESE,116,0.0,0.0,91,0.00,,,0.00,Wunderground v.1.15,2013-01-03 02:09:00,
2013-01-02 21:15:00,65.2,62.8,30.00,ESE,116,0.0,0.0,92,0.00,,,0.00,Wunderground v.1.15,2013-01-03 02:15:00,
2013-01-02 21:20:00,65.0,62.6,30.00,ESE,116,0.0,0.0,92,0.00,,,0.00,Wunderground v.1.15,2013-01-03 02:20:00,
2013-01-02 21:25:00,64.8,62.4,30.00,ESE,116,0.0,0.0,92,0.00,,,0.00,Wunderground v.1.15,2013-01-03 02:25:00,
2013-01-02 21:30:00,64.7,62.3,30.01,ESE,116,0.0,0.0,92,0.00,,,0.00,Wunderground v.1.15,2013-01-03 02:30:00,
2013-01-02 21:35:00,64.7,62.3,30.01,ESE,116,0.0,0.0,92,0.00,,,0.00,Wunderground v.1.15,2013-01-03 02:35:00,
2013-01-02 21:40:00,64.5,62.1,30.01,ESE,116,0.0,0.0,92,0.00,,,0.00,Wunderground v.1.15,2013-01-03 02:40:00,
2013-01-02 21:45:00,64.3,61.9,30.01,ESE,116,0.0,0.0,92,0.00,,,0.00,Wunderground v.1.15,2013-01-03 02:45:00,
2013-01-02 21:50:00,64.2,61.8,30.01,ESE,116,0.0,0.0,92,0.00,,,0.00,Wunderground v.1.15,2013-01-03 02:50:00,
2013-01-02 21:55:00,64.0,61.6,30.01,ESE,116,0.0,0.0,92,0.00,,,0.00,Wunderground v.1.15,2013-01-03 02:55:00,
2013-01-02 22:00:00,64.0,61.9,30.01,ESE,116,0.0,0.0,93,0.00,,,0.00,Wunderground v.1.15,2013-01-03 03:00:00,
2013-01-02 22:05:00,63.9,61.8,30.01,ESE,116,0.0,0.0,93,0.00,,,0.00,Wunderground v.1.15,2013-01-03 03:05:00,
2013-01-02 22:10:00,63.9,61.8,30.01,ESE,116,0.0,0.0,93,0.00,,,0.00,Wunderground v.1.15,2013-01-03 03:10:00,
2013-01-02 22:15:00,63.7,61.9,30.01,ESE,116,0.0,0.0,94,0.00,,,0.00,Wunderground v.1.15,2013-01-03 03:15:00,
2013-01-02 22:20:00,63.7,61.9,30.01,ESE,116,0.0,0.0,94,0.00,,,0.00,Wunderground v.1.15,2013-01-03 03:20:00,
2013-01-02 22:25:00,63.5,61.7,30.01,ESE,116,0.0,0.0,94,0.00,,,0.00,Wunderground v.1.15,2013-01-03 03:25:00,
2013-01-02 22:30:00,63.4,61.6,30.01,ESE,116,0.0,0.0,94,0.00,,,0.00,Wunderground v.1.15,2013-01-03 03:30:00,
2013-01-02 22:35:00,63.2,61.4,30.01,ESE,116,0.0,0.0,94,0.00,,,0.00,Wunderground v.1.15,2013-01-03 03:35:00,
2013-01-02 22:40:00,63.2,61.4,30.01,ESE,116,0.0,0.0,94,0.00,,,0.00,Wunderground v.1.15,2013-01-03 03:40:00,
2013-01-02 22:46:00,63.1,61.3,30.01,ESE,116,0.0,0.0,94,0.00,,,0.00,Wunderground v.1.15,2013-01-03 03:46:00,
2013-01-02 22:51:00,63.1,61.3,30.01,ESE,116,0.0,0.0,94,0.00,,,0.00,Wunderground v.1.15,2013-01-03 03:51:00,
2013-01-02 22:56:00,62.9,61.1,30.01,ESE,116,0.0,0.0,94,0.00,,,0.00,Wunderground v.1.15,2013-01-03 03:56:00,
2013-01-02 23:01:00,62.9,61.1,30.01,ESE,116,0.0,0.0,94,0.00,,,0.00,Wunderground v.1.15,2013-01-03 04:01:00,
2013-01-02 23:06:00,63.1,61.6,30.01,WSW,248,0.0,1.0,95,0.00,,,0.00,Wunderground v.1.15,2013-01-03 04:06:00,
2013-01-02 23:11:00,63.4,62.2,30.01,WSW,248,0.0,0.0,96,0.00,,,0.00,Wunderground v.1.15,2013-01-03 04:11:00,
2013-01-02 23:16:00,63.7,62.5,30.01,WSW,245,0.0,2.0,96,0.00,,,0.00,Wunderground v.1.15,2013-01-03 04:16:00,
2013-01-02 23:21:00,63.9,62.7,30.01,WSW,245,0.0,0.0,96,0.00,,,0.00,Wunderground v.1.15,2013-01-03 04:21:00,
2013-01-02 23:26:00,63.9,62.7,30.01,WSW,245,0.0,0.0,96,0.00,,,0.00,Wunderground v.1.15,2013-01-03 04:26:00,
2013-01-02 23:31:00,63.7,62.5,30.01,WSW,245,0.0,0.0,96,0.00,,,0.00,Wunderground v.1.15,2013-01-03 04:31:00,
2013-01-02 23:36:00,63.7,62.5,30.01,WSW,245,0.0,0.0,96,0.00,,,0.00,Wunderground v.1.15,2013-01-03 04:36:00,
2013-01-02 23:41:00,63.5,62.3,30.01,WSW,245,0.0,0.0,96,0.00,,,0.00,Wunderground v.1.15,2013-01-03 04:41:00,
2013-01-02 23:46:00,63.5,62.3,30.01,WSW,245,0.0,0.0,96,0.00,,,0.00,Wunderground v.1.15,2013-01-03 04:46:00,
2013-01-02 23:51:00,63.5,62.3,30.01,WSW,245,0.0,0.0,96,0.00,,,0.00,Wunderground v.1.15,2013-01-03 04:51:00,
2013-01-02 23:56:00,63.5,62.3,30.01,WSW,245,0.0,0.0,96,0.00,,,0.00,Wunderground v.1.15,2013-01-03 04:56:00,